SBTT/TBT METAR and TAF weather

Enter ICAO airport designator
Station Type Date Time Source
SBTT METAR 2019/10/22 16:00 UTC NOAA

SBTT 221600Z 24004KT 9999 FEW015 29/24 Q1012


Station Type Date Time Source
SBTT Decoded METAR 2019/10/22 16:00 UTC NOAA

Tabatinga, Brazil (SBTT) 03-40S 069-40W
Oct 22, 2019 - 12:00 PM EDT / 2019.10.22 1600 UTC
Wind: from the WSW (240 degrees) at 5 MPH (4 KT):0
Visibility: greater than 7 mile(s):0
Sky conditions: mostly clear
Temperature: 84 F (29 C)
Dew Point: 75 F (24 C)
Relative Humidity: 74%
Pressure (altimeter): 29.88 in. Hg (1012 hPa)
ob: SBTT 221600Z 24004KT 9999 FEW015 29/24 Q1012
cycle: 16

Station Type Date Time Source
SBTT TAF 2019/10/22 12:46 UTC NOAA

TAF SBTT 220940Z 2212/2312 06005KT 8000 SCT010 TX30/2217Z TN23/2311Z
BECMG 2212/2214 SCT025
BECMG 2215/2217 24005KT 7000 BKN025 FEW035TCU
TEMPO 2218/2222 TS BKN023 FEW030CB
BECMG 2300/2303 05003KT SCT020
RMK PHC

Example: see airport list